Detall de PIREP

Printer-friendly versionPDF version

[2014/04/29 17:00:00]
Flight IATA:CT3120
Pilot Number:012
Company ICAO:CAT
Aircraft Type:AT72/F
PAX:57
Departing Airport: LEPA
Destination Airport: LEVC
Alternate Airport:LEAL
Online: VATSIM
Route:EPAMA A33 ARGOR
Flight Level:F150
No Slew and time accel
No pause
Crash detect
Detect pilot in Cockpit between each 30 and 45 minutes
17:00 Zero fuel Weight: 41803 Lbs, Fuel Weight: 4572 Lbs
17:00 VATSIM:LEPA 291630Z 23008KT 9999 FEW016 21/13 Q1013 NOSIG
17:00 VATSIM:LEVC 291630Z 09009KT 030V120 CAVOK 21/12 Q1013 NOSIG
17:01 Parking Brakes off
17:05 Take-off
17:05 Take off Weight: 46320 Lbs
17:05 Wind: 229º @ 008 Knots Heading: 235º
17:05 POS N39º 33´ 21´´ E002º 43´ 47´´
17:05 Gear Up: 129 Knots
17:05 Flaps:1 at 129 Knots
17:06 Flaps:0 at 168 Knots
17:16 TOC
17:16 Fuel Weight: 4156 Lb
17:20 Wind:286º@026 Knots Heading: 270º Ground Speed: 250 Knots Altitude 14990 ft
17:35 Wind:285º@024 Knots Heading: 269º Ground Speed: 258 Knots Altitude 14990 ft
17:35 TOD
17:35 Fuel Weight: 3581 Lb
17:46 Flaps:1 at 168 Knots
17:47 Gear Down: 151 Knots
17:47 Flaps:2 at 142 Knots
17:48 TouchDown:Rate -99 ft/min Speed: 107 Knots
17:49 Flaps:1 at 56 Knots
17:49 Flaps:0 at 54 Knots
17:49 VATSIM:LEVC 291730Z 07008KT 030V110 CAVOK 20/11 Q1013 NOSIG
17:49 Land
17:49 Wind:083º@008 Knots
17:49 Heading: 117º
17:49 Flight Duration: 00:44
17:49 Landing Weight: 45166 Lbs
17:49 POS N39º 29´ 29´´ W000º 29´ 15´´
17:50 Parking brakes on
17:50 Block to Block Duration: 00:49
17:50 Final Fuel: 3350 Lbls
17:50 Spent Fuel: 1221 Lbls
17:50 Flight Length: 166 NM
17:50 TOD Land Length: 52 NM

Exportar CSV

Powered by Drupal - Modified by Danger4k